Brainerd, Minnesota
Current Conditions -  °F | °C
As of 12:53 PM on Saturday 25 Oct 2014 (Local Time) from KBRD Reporting Station
Clear Clear  
Wind Chill: 56°   Ceiling: Unl
Heat Index: 56°   Visibility: 10mi
Dew Point: 28°   Wind: 14mph
Humidity: 34%   Direction: 300°WNW
Pressure: 30.02"   Gusts: 21mph
Location:  46.35°N, 94.2°W
Report Text: KBRD 251753Z AUTO 30012G18KT 10SM CLR 13/M02 A3002 RMK AO2 SLP171 T01331022 10133 20067 50000
Loading
Personal Weather Stations






























Interactive Weather Map
Tropical Storm Tracking
New forecast layout! Learn more

10-Day Weather Forecast

Advertisements
Track Severe Weather on mobile